ADDS METAR Data INFO
IDs: Format: Raw Decoded Include TAF

Data at: 0401 UTC 11 Dec 2017

KLIC 110355Z AUTO 35004KT 10SM CLR M09/M21 A3033 RMK AO2 SLP296 T10891206
KLIC 110255Z AUTO 35008KT 10SM CLR M09/M21 A3033 RMK AO2 SLP324 T10941206 58001
KLIC 110155Z AUTO 32003KT 10SM CLR M07/M21 A3034 RMK AO2 SLP336 T10721206
KLIC 110055Z AUTO 35005KT 10SM CLR M06/M21 A3034 RMK AO2 SLP319 T10561206
KLIC 102355Z AUTO 19004KT 10SM CLR 03/M21 A3033 RMK AO2 SLP303 T00281206 10161 20028 56005
KLIC 102255Z AUTO 19008KT 10SM CLR 11/M21 A3034 RMK AO2 SLP285 T01111211
KLIC 102155Z AUTO 20008KT 10SM CLR 14/M22 A3034 RMK AO2 SLP264 T01441222
KLIC 102055Z AUTO VRB03KT 10SM CLR 15/M23 A3035 RMK AO2 SLP265 T01501233 56019
KLIC 101955Z AUTO 33005KT 10SM CLR 16/M23 A3037 RMK AO2 SLP271 T01561228
KLIC 101855Z AUTO 22005KT 10SM CLR 14/M23 A3040 RMK AO2 SLP284 T01441228
KLIC 101755Z AUTO VRB03KT 10SM CLR 13/M22 A3042 RMK AO2 SLP292 T01331222 10133 21117 58001
KLIC 101655Z AUTO 00000KT 10SM CLR 11/M18 A3043 RMK AO2 SLP303 T01061178
KLIC 101555Z AUTO 31005KT 10SM CLR 04/M18 A3043 RMK AO2 SLP312 T00441178
KLIC 101455Z AUTO 34003KT 10SM CLR M07/M17 A3042 RMK AO2 SLP336 T10671172 51006
KLIC 101355Z AUTO 35005KT 10SM CLR M12/M18 A3042 RMK AO2 SLP341 T11171183
KLIC 101255Z AUTO 31005KT 10SM CLR M07/M19 A3041 RMK AO2 SLP330 T10671189
KLIC 101155Z AUTO 33004KT 10SM CLR M10/M18 A3040 RMK AO2 SLP336 T11001183 11028 21117 55003
KLIC 101055Z AUTO 31003KT 10SM CLR M11/M19 A3039 RMK AO2 SLP306 T11061189
KLIC 100955Z AUTO 34005KT 10SM CLR M04/M17 A3040 RMK AO2 SLP290 T10391172
KLIC 100855Z AUTO 36004KT 10SM CLR M03/M17 A3041 RMK AO2 SLP289 T10331172 58000
KLIC 100755Z AUTO 35005KT 10SM CLR M04/M17 A3041 RMK AO2 SLP290 T10391172
KLIC 100655Z AUTO 29006KT 10SM CLR M04/M17 A3041 RMK AO2 SLP293 T10391172 401391089
KLIC 100555Z AUTO 34004KT 10SM CLR M04/M17 A3041 RMK AO2 SLP295 T10391172 10017 21056 51009
KLIC 100455Z AUTO 32004KT 10SM CLR M04/M18 A3040 RMK AO2 SLP298 T10441178
KLIC 100355Z AUTO 27010KT 10SM CLR M02/M17 A3040 RMK AO2 SLP293 T10171172
KLIC 100255Z AUTO 31010KT 10SM CLR M01/M18 A3038 RMK AO2 SLP307 T10111178 51016
KLIC 100155Z AUTO 29008KT 10SM CLR 02/M17 A3037 RMK AO2 SLP307 T00171172
KLIC 100055Z AUTO 36011KT 10SM CLR 00/M18 A3034 RMK AO2 SLP294 T00001178
KLIC 092355Z AUTO 34010KT 10SM CLR M01/M19 A3032 RMK AO2 SLP290 T10111189 10139 21011 53007
KLIC 092255Z AUTO 35009KT 10SM CLR 11/M18 A3031 RMK AO2 SLP264 T01111183
KLIC 092155Z AUTO 35014G21KT 10SM CLR 13/M19 A3030 RMK AO2 SLP243 T01281189
KLIC 092055Z AUTO 34016G22KT 10SM CLR 13/M20 A3030 RMK AO2 SLP244 T01331200 56012
KLIC 091955Z AUTO 33016KT 10SM CLR 13/M20 A3031 RMK AO2 PK WND 34027/1933 SLP245 T01331200
KLIC 091855Z AUTO 34021G27KT 10SM CLR 13/M19 A3032 RMK AO2 PK WND 32028/1835 SLP257 T01281189
KLIC 091755Z AUTO 35016G23KT 10SM CLR 12/M17 A3034 RMK AO2 SLP264 T01171172 10117 21089 50006
KLIC 091655Z AUTO 34013G22KT 10SM CLR 10/M17 A3036 RMK AO2 SLP269 T01001167